sensor_id;sensor_type;location;lat;lon;timestamp;pressure;altitude;pressure_sealevel;temperature;humidity
42761;BME280;31672;47.638;19.026;2023-03-29T00:01:48;100926.03;;;-1.01;56.95
42761;BME280;31672;47.638;19.026;2023-03-29T00:06:54;100921.88;;;-1.05;56.69
42761;BME280;31672;47.638;19.026;2023-03-29T00:11:58;100922.00;;;-1.08;56.60
42761;BME280;31672;47.638;19.026;2023-03-29T00:17:01;100921.34;;;-1.12;56.73
42761;BME280;31672;47.638;19.026;2023-03-29T00:22:05;100924.03;;;-1.13;56.74
42761;BME280;31672;47.638;19.026;2023-03-29T00:27:08;100911.22;;;-1.18;56.71
42761;BME280;31672;47.638;19.026;2023-03-29T00:32:11;100923.63;;;-1.23;56.60
42761;BME280;31672;47.638;19.026;2023-03-29T00:37:18;100926.66;;;-1.32;57.00
42761;BME280;31672;47.638;19.026;2023-03-29T00:42:22;100927.88;;;-1.39;57.20
42761;BME280;31672;47.638;19.026;2023-03-29T00:47:35;100924.72;;;-1.46;57.71
42761;BME280;31672;47.638;19.026;2023-03-29T00:52:42;100933.13;;;-1.58;57.63
42761;BME280;31672;47.638;19.026;2023-03-29T00:57:49;100926.53;;;-1.65;57.91
42761;BME280;31672;47.638;19.026;2023-03-29T01:02:55;100918.66;;;-1.82;58.46
42761;BME280;31672;47.638;19.026;2023-03-29T01:08:06;100919.31;;;-1.96;59.76
42761;BME280;31672;47.638;19.026;2023-03-29T01:13:22;100918.59;;;-2.00;59.68
42761;BME280;31672;47.638;19.026;2023-03-29T01:18:28;100920.22;;;-1.97;60.15
42761;BME280;31672;47.638;19.026;2023-03-29T01:29:06;100908.44;;;-1.87;61.03
42761;BME280;31672;47.638;19.026;2023-03-29T01:39:52;100892.59;;;-1.82;61.35
42761;BME280;31672;47.638;19.026;2023-03-29T01:55:33;100899.03;;;-2.08;62.76
42761;BME280;31672;47.638;19.026;2023-03-29T02:00:38;100898.50;;;-2.17;63.02
42761;BME280;31672;47.638;19.026;2023-03-29T02:05:44;100904.16;;;-2.26;63.53
42761;BME280;31672;47.638;19.026;2023-03-29T02:10:48;100902.88;;;-2.17;62.52
42761;BME280;31672;47.638;19.026;2023-03-29T02:15:51;100907.88;;;-2.12;62.81
42761;BME280;31672;47.638;19.026;2023-03-29T02:20:56;100909.50;;;-2.29;63.35
42761;BME280;31672;47.638;19.026;2023-03-29T02:26:01;100915.59;;;-2.30;63.49
42761;BME280;31672;47.638;19.026;2023-03-29T02:36:53;100908.53;;;-2.26;63.12
42761;BME280;31672;47.638;19.026;2023-03-29T02:41:58;100914.91;;;-2.33;63.51
42761;BME280;31672;47.638;19.026;2023-03-29T02:47:14;100915.66;;;-2.50;63.58
42761;BME280;31672;47.638;19.026;2023-03-29T02:52:28;100924.00;;;-2.62;64.09
42761;BME280;31672;47.638;19.026;2023-03-29T02:57:35;100926.22;;;-2.74;64.83
42761;BME280;31672;47.638;19.026;2023-03-29T03:02:40;100925.63;;;-2.80;65.20
42761;BME280;31672;47.638;19.026;2023-03-29T03:07:43;100936.22;;;-2.85;66.17
42761;BME280;31672;47.638;19.026;2023-03-29T03:12:47;100933.94;;;-2.92;66.20
42761;BME280;31672;47.638;19.026;2023-03-29T03:17:51;100931.66;;;-3.00;66.73
42761;BME280;31672;47.638;19.026;2023-03-29T03:22:54;100928.22;;;-3.01;66.84
42761;BME280;31672;47.638;19.026;2023-03-29T03:27:59;100924.84;;;-3.03;66.69
42761;BME280;31672;47.638;19.026;2023-03-29T03:33:03;100922.38;;;-3.06;66.57
42761;BME280;31672;47.638;19.026;2023-03-29T03:38:06;100921.97;;;-3.17;66.67
42761;BME280;31672;47.638;19.026;2023-03-29T03:43:09;100935.22;;;-3.23;67.25
42761;BME280;31672;47.638;19.026;2023-03-29T03:48:12;100935.50;;;-3.31;67.43
42761;BME280;31672;47.638;19.026;2023-03-29T03:53:16;100940.66;;;-3.29;67.67
42761;BME280;31672;47.638;19.026;2023-03-29T03:58:20;100938.41;;;-3.38;67.54
42761;BME280;31672;47.638;19.026;2023-03-29T04:03:23;100935.56;;;-3.32;68.47
42761;BME280;31672;47.638;19.026;2023-03-29T04:08:27;100935.56;;;-3.32;68.54
42761;BME280;31672;47.638;19.026;2023-03-29T04:13:30;100929.88;;;-3.20;68.22
42761;BME280;31672;47.638;19.026;2023-03-29T04:18:33;100925.75;;;-3.04;67.36
42761;BME280;31672;47.638;19.026;2023-03-29T04:23:36;100916.00;;;-2.99;67.04
42761;BME280;31672;47.638;19.026;2023-03-29T04:28:40;100929.78;;;-2.76;66.50
42761;BME280;31672;47.638;19.026;2023-03-29T04:33:44;100924.31;;;-2.70;65.99
42761;BME280;31672;47.638;19.026;2023-03-29T04:38:49;100930.44;;;-2.51;65.21
42761;BME280;31672;47.638;19.026;2023-03-29T04:43:54;100931.56;;;-2.37;64.31
42761;BME280;31672;47.638;19.026;2023-03-29T04:48:57;100933.75;;;-2.28;63.93
42761;BME280;31672;47.638;19.026;2023-03-29T04:54:00;100933.00;;;-2.30;64.42
42761;BME280;31672;47.638;19.026;2023-03-29T04:59:03;100930.38;;;-2.30;64.64
42761;BME280;31672;47.638;19.026;2023-03-29T05:04:07;100941.53;;;-2.27;65.31
42761;BME280;31672;47.638;19.026;2023-03-29T05:09:13;100933.84;;;-2.30;65.71
42761;BME280;31672;47.638;19.026;2023-03-29T05:14:17;100930.31;;;-2.29;66.36
42761;BME280;31672;47.638;19.026;2023-03-29T05:19:20;100936.81;;;-2.19;66.46
42761;BME280;31672;47.638;19.026;2023-03-29T05:24:23;100926.69;;;-2.06;66.60
42761;BME280;31672;47.638;19.026;2023-03-29T05:29:26;100939.84;;;-1.90;66.73
42761;BME280;31672;47.638;19.026;2023-03-29T05:34:29;100937.38;;;-1.74;66.92
42761;BME280;31672;47.638;19.026;2023-03-29T05:39:33;100935.38;;;-1.50;66.57
42761;BME280;31672;47.638;19.026;2023-03-29T05:44:40;100941.50;;;-1.15;65.02
42761;BME280;31672;47.638;19.026;2023-03-29T05:49:43;100943.44;;;-0.84;62.72
42761;BME280;31672;47.638;19.026;2023-03-29T05:54:46;100939.50;;;-0.58;61.62
42761;BME280;31672;47.638;19.026;2023-03-29T05:59:50;100938.34;;;-0.35;60.84
42761;BME280;31672;47.638;19.026;2023-03-29T06:04:53;100936.53;;;-0.17;59.91
42761;BME280;31672;47.638;19.026;2023-03-29T06:09:57;100944.13;;;0.03;59.58
42761;BME280;31672;47.638;19.026;2023-03-29T06:15:00;100937.91;;;0.21;58.42
42761;BME280;31672;47.638;19.026;2023-03-29T06:20:08;100953.31;;;0.42;58.33
42761;BME280;31672;47.638;19.026;2023-03-29T06:25:13;100953.59;;;0.53;57.28
42761;BME280;31672;47.638;19.026;2023-03-29T06:30:17;100957.22;;;0.66;56.66
42761;BME280;31672;47.638;19.026;2023-03-29T06:35:21;100958.13;;;0.81;56.32
42761;BME280;31672;47.638;19.026;2023-03-29T06:40:23;100952.28;;;0.92;55.31
42761;BME280;31672;47.638;19.026;2023-03-29T06:45:31;100963.63;;;1.06;54.71
42761;BME280;31672;47.638;19.026;2023-03-29T06:50:34;100954.81;;;1.23;53.23
42761;BME280;31672;47.638;19.026;2023-03-29T06:55:37;100964.19;;;1.42;52.52
42761;BME280;31672;47.638;19.026;2023-03-29T07:00:40;100974.25;;;1.64;51.80
42761;BME280;31672;47.638;19.026;2023-03-29T07:05:44;100966.69;;;1.87;51.65
42761;BME280;31672;47.638;19.026;2023-03-29T07:10:50;100971.44;;;2.09;50.28
42761;BME280;31672;47.638;19.026;2023-03-29T07:15:55;100980.16;;;2.24;48.78
42761;BME280;31672;47.638;19.026;2023-03-29T07:20:58;100983.69;;;2.37;49.40
42761;BME280;31672;47.638;19.026;2023-03-29T07:26:01;100984.69;;;2.49;46.93
42761;BME280;31672;47.638;19.026;2023-03-29T07:31:09;100982.25;;;2.60;46.69
42761;BME280;31672;47.638;19.026;2023-03-29T07:36:13;100995.97;;;2.78;46.13
42761;BME280;31672;47.638;19.026;2023-03-29T07:41:17;100992.31;;;3.08;46.97
42761;BME280;31672;47.638;19.026;2023-03-29T07:46:20;100990.16;;;3.40;47.14
42761;BME280;31672;47.638;19.026;2023-03-29T07:51:23;100995.38;;;3.80;46.37
42761;BME280;31672;47.638;19.026;2023-03-29T07:56:26;101007.56;;;4.06;45.32
42761;BME280;31672;47.638;19.026;2023-03-29T08:01:29;100996.59;;;4.12;44.01
42761;BME280;31672;47.638;19.026;2023-03-29T08:06:33;101004.69;;;4.22;45.44
42761;BME280;31672;47.638;19.026;2023-03-29T08:11:36;100999.94;;;4.40;44.38
42761;BME280;31672;47.638;19.026;2023-03-29T08:16:41;100988.97;;;4.46;44.10
42761;BME280;31672;47.638;19.026;2023-03-29T08:21:44;100997.78;;;4.57;43.07
42761;BME280;31672;47.638;19.026;2023-03-29T08:26:47;100990.19;;;4.90;42.33
42761;BME280;31672;47.638;19.026;2023-03-29T08:31:50;100985.47;;;5.30;42.01
42761;BME280;31672;47.638;19.026;2023-03-29T08:36:54;100976.59;;;5.77;39.99
42761;BME280;31672;47.638;19.026;2023-03-29T08:52:59;100969.25;;;7.03;36.40
42761;BME280;31672;47.638;19.026;2023-03-29T08:58:12;100969.94;;;7.58;36.23
42761;BME280;31672;47.638;19.026;2023-03-29T09:03:23;100956.72;;;8.19;35.38
42761;BME280;31672;47.638;19.026;2023-03-29T09:08:28;100957.06;;;8.35;35.10
42761;BME280;31672;47.638;19.026;2023-03-29T09:25:13;100923.56;;;8.84;33.24
42761;BME280;31672;47.638;19.026;2023-03-29T09:45:52;100904.34;;;9.95;32.95
42761;BME280;31672;47.638;19.026;2023-03-29T09:50:59;100891.00;;;10.42;31.41
42761;BME280;31672;47.638;19.026;2023-03-29T09:56:05;100873.22;;;10.60;31.03
42761;BME280;31672;47.638;19.026;2023-03-29T10:01:14;100873.47;;;10.67;30.78
42761;BME280;31672;47.638;19.026;2023-03-29T10:06:20;100867.31;;;10.84;29.37
42761;BME280;31672;47.638;19.026;2023-03-29T10:11:35;100867.78;;;10.44;29.81
42761;BME280;31672;47.638;19.026;2023-03-29T10:16:42;100863.97;;;10.19;32.17
42761;BME280;31672;47.638;19.026;2023-03-29T10:21:50;100857.53;;;10.22;32.58
42761;BME280;31672;47.638;19.026;2023-03-29T10:27:01;100849.78;;;10.56;30.09
42761;BME280;31672;47.638;19.026;2023-03-29T10:37:27;100841.22;;;11.32;31.09
42761;BME280;31672;47.638;19.026;2023-03-29T10:42:30;100830.66;;;11.40;30.30
42761;BME280;31672;47.638;19.026;2023-03-29T10:47:33;100827.50;;;11.78;31.45
42761;BME280;31672;47.638;19.026;2023-03-29T10:52:39;100827.31;;;12.06;30.58
42761;BME280;31672;47.638;19.026;2023-03-29T10:58:11;100829.91;;;11.98;30.06
42761;BME280;31672;47.638;19.026;2023-03-29T11:03:36;100813.72;;;12.50;30.96
42761;BME280;31672;47.638;19.026;2023-03-29T11:08:57;100811.22;;;12.48;30.16
42761;BME280;31672;47.638;19.026;2023-03-29T11:14:32;100802.44;;;11.89;30.25
42761;BME280;31672;47.638;19.026;2023-03-29T11:25:28;100799.47;;;12.00;32.37
42761;BME280;31672;47.638;19.026;2023-03-29T11:31:08;100797.91;;;12.73;29.83
42761;BME280;31672;47.638;19.026;2023-03-29T11:41:43;100779.66;;;11.95;30.08
42761;BME280;31672;47.638;19.026;2023-03-29T11:47:19;100781.59;;;11.50;30.17
42761;BME280;31672;47.638;19.026;2023-03-29T11:53:00;100778.66;;;12.04;31.32
42761;BME280;31672;47.638;19.026;2023-03-29T11:58:27;100779.53;;;12.29;30.22
42761;BME280;31672;47.638;19.026;2023-03-29T12:03:45;100766.25;;;12.37;29.57
42761;BME280;31672;47.638;19.026;2023-03-29T12:14:29;100736.94;;;12.53;30.21
42761;BME280;31672;47.638;19.026;2023-03-29T12:19:48;100736.06;;;12.61;31.05
42761;BME280;31672;47.638;19.026;2023-03-29T12:24:55;100738.22;;;12.57;29.86
42761;BME280;31672;47.638;19.026;2023-03-29T12:30:20;100727.28;;;13.24;30.20
42761;BME280;31672;47.638;19.026;2023-03-29T12:40:43;100722.72;;;12.77;30.13
42761;BME280;31672;47.638;19.026;2023-03-29T12:45:50;100700.22;;;13.35;30.16
42761;BME280;31672;47.638;19.026;2023-03-29T12:51:06;100714.91;;;12.68;29.33
42761;BME280;31672;47.638;19.026;2023-03-29T12:56:14;100718.09;;;12.39;30.87
42761;BME280;31672;47.638;19.026;2023-03-29T13:06:49;100710.75;;;12.08;30.86
42761;BME280;31672;47.638;19.026;2023-03-29T13:39:51;100674.63;;;12.05;31.46
42761;BME280;31672;47.638;19.026;2023-03-29T13:45:25;100665.06;;;11.78;32.59
42761;BME280;31672;47.638;19.026;2023-03-29T13:50:49;100660.06;;;11.67;31.52
42761;BME280;31672;47.638;19.026;2023-03-29T13:55:54;100650.91;;;11.62;32.23
42761;BME280;31672;47.638;19.026;2023-03-29T14:02:10;100645.47;;;12.04;32.22
42761;BME280;31672;47.638;19.026;2023-03-29T14:06:56;100642.25;;;12.66;32.29
42761;BME280;31672;47.638;19.026;2023-03-29T14:11:59;100637.22;;;12.71;31.10
42761;BME280;31672;47.638;19.026;2023-03-29T14:17:04;100630.44;;;12.60;31.33
42761;BME280;31672;47.638;19.026;2023-03-29T14:22:13;100628.94;;;12.57;30.68
42761;BME280;31672;47.638;19.026;2023-03-29T14:27:17;100629.63;;;12.35;31.04
42761;BME280;31672;47.638;19.026;2023-03-29T14:32:28;100620.44;;;11.56;31.63
42761;BME280;31672;47.638;19.026;2023-03-29T14:37:32;100632.66;;;11.16;32.33
42761;BME280;31672;47.638;19.026;2023-03-29T14:42:36;100635.06;;;10.93;32.92
42761;BME280;31672;47.638;19.026;2023-03-29T14:47:40;100626.63;;;10.72;32.95
42761;BME280;31672;47.638;19.026;2023-03-29T14:52:44;100629.78;;;10.41;33.90
42761;BME280;31672;47.638;19.026;2023-03-29T14:57:53;100633.84;;;10.28;34.47
42761;BME280;31672;47.638;19.026;2023-03-29T15:03:01;100627.91;;;10.16;34.96
42761;BME280;31672;47.638;19.026;2023-03-29T15:08:07;100627.91;;;10.16;35.86
42761;BME280;31672;47.638;19.026;2023-03-29T15:13:20;100619.19;;;10.06;35.93
42761;BME280;31672;47.638;19.026;2023-03-29T15:18:36;100627.00;;;10.25;36.42
42761;BME280;31672;47.638;19.026;2023-03-29T15:23:57;100622.16;;;10.21;36.56
42761;BME280;31672;47.638;19.026;2023-03-29T15:29:14;100614.03;;;10.22;36.69
42761;BME280;31672;47.638;19.026;2023-03-29T15:34:30;100617.84;;;10.19;36.49
42761;BME280;31672;47.638;19.026;2023-03-29T15:39:43;100609.03;;;10.01;37.25
42761;BME280;31672;47.638;19.026;2023-03-29T15:44:46;100607.41;;;9.82;37.21
42761;BME280;31672;47.638;19.026;2023-03-29T15:49:49;100609.31;;;9.72;38.01
42761;BME280;31672;47.638;19.026;2023-03-29T15:54:52;100606.19;;;9.77;38.23
42761;BME280;31672;47.638;19.026;2023-03-29T15:59:56;100599.53;;;9.73;38.41
42761;BME280;31672;47.638;19.026;2023-03-29T16:04:59;100602.25;;;9.63;39.02
42761;BME280;31672;47.638;19.026;2023-03-29T16:10:04;100590.38;;;9.49;39.54
42761;BME280;31672;47.638;19.026;2023-03-29T16:15:15;100579.34;;;9.26;39.70
42761;BME280;31672;47.638;19.026;2023-03-29T16:20:19;100584.50;;;9.28;40.38
42761;BME280;31672;47.638;19.026;2023-03-29T16:25:23;100588.59;;;9.22;40.22
42761;BME280;31672;47.638;19.026;2023-03-29T16:30:26;100577.22;;;9.12;40.67
42761;BME280;31672;47.638;19.026;2023-03-29T16:35:32;100580.06;;;9.01;40.76
42761;BME280;31672;47.638;19.026;2023-03-29T16:40:35;100580.72;;;8.85;40.85
42761;BME280;31672;47.638;19.026;2023-03-29T16:45:38;100584.72;;;8.62;41.89
42761;BME280;31672;47.638;19.026;2023-03-29T16:50:43;100583.66;;;8.45;41.62
42761;BME280;31672;47.638;19.026;2023-03-29T16:55:46;100583.13;;;8.31;42.31
42761;BME280;31672;47.638;19.026;2023-03-29T17:00:50;100597.50;;;8.19;42.34
42761;BME280;31672;47.638;19.026;2023-03-29T17:05:55;100588.34;;;8.04;42.65
42761;BME280;31672;47.638;19.026;2023-03-29T17:10:59;100588.22;;;7.96;43.21
42761;BME280;31672;47.638;19.026;2023-03-29T17:16:03;100574.44;;;7.83;43.42
42761;BME280;31672;47.638;19.026;2023-03-29T17:21:07;100577.66;;;7.76;43.86
42761;BME280;31672;47.638;19.026;2023-03-29T17:26:10;100576.97;;;7.65;44.70
42761;BME280;31672;47.638;19.026;2023-03-29T17:31:13;100589.91;;;7.58;45.23
42761;BME280;31672;47.638;19.026;2023-03-29T17:36:16;100604.66;;;7.51;45.67
42761;BME280;31672;47.638;19.026;2023-03-29T17:41:20;100605.47;;;7.42;46.14
42761;BME280;31672;47.638;19.026;2023-03-29T17:46:24;100604.34;;;7.35;46.42
42761;BME280;31672;47.638;19.026;2023-03-29T17:51:28;100606.88;;;7.27;46.74
42761;BME280;31672;47.638;19.026;2023-03-29T17:56:31;100601.53;;;7.17;47.41
42761;BME280;31672;47.638;19.026;2023-03-29T18:01:37;100614.31;;;7.12;47.63
42761;BME280;31672;47.638;19.026;2023-03-29T18:06:41;100622.94;;;7.04;47.69
42761;BME280;31672;47.638;19.026;2023-03-29T18:11:44;100629.44;;;7.00;48.48
42761;BME280;31672;47.638;19.026;2023-03-29T18:16:47;100624.69;;;6.94;49.35
42761;BME280;31672;47.638;19.026;2023-03-29T18:21:53;100652.69;;;6.96;49.85
42761;BME280;31672;47.638;19.026;2023-03-29T18:26:56;100644.88;;;6.95;50.66
42761;BME280;31672;47.638;19.026;2023-03-29T18:31:59;100651.56;;;6.99;51.96
42761;BME280;31672;47.638;19.026;2023-03-29T18:37:04;100651.56;;;6.99;52.64
42761;BME280;31672;47.638;19.026;2023-03-29T18:42:08;100650.97;;;6.95;53.40
42761;BME280;31672;47.638;19.026;2023-03-29T18:47:14;100648.75;;;6.91;54.43
42761;BME280;31672;47.638;19.026;2023-03-29T18:52:19;100641.81;;;6.90;54.98
42761;BME280;31672;47.638;19.026;2023-03-29T18:57:23;100637.63;;;6.87;55.38
42761;BME280;31672;47.638;19.026;2023-03-29T19:02:26;100640.41;;;6.86;55.75
42761;BME280;31672;47.638;19.026;2023-03-29T19:07:29;100645.25;;;6.81;56.45
42761;BME280;31672;47.638;19.026;2023-03-29T19:12:33;100644.53;;;6.79;56.75
42761;BME280;31672;47.638;19.026;2023-03-29T19:17:36;100644.50;;;6.69;57.29
42761;BME280;31672;47.638;19.026;2023-03-29T19:22:39;100644.78;;;6.66;57.57
42761;BME280;31672;47.638;19.026;2023-03-29T19:27:42;100653.78;;;6.63;57.82
42761;BME280;31672;47.638;19.026;2023-03-29T19:32:45;100657.53;;;6.61;58.37
42761;BME280;31672;47.638;19.026;2023-03-29T19:37:48;100659.44;;;6.59;58.58
42761;BME280;31672;47.638;19.026;2023-03-29T19:42:52;100654.44;;;6.56;58.91
42761;BME280;31672;47.638;19.026;2023-03-29T19:47:56;100654.44;;;6.56;59.02
42761;BME280;31672;47.638;19.026;2023-03-29T19:53:01;100653.84;;;6.52;59.53
42761;BME280;31672;47.638;19.026;2023-03-29T19:58:05;100654.13;;;6.49;59.75
42761;BME280;31672;47.638;19.026;2023-03-29T20:03:08;100655.09;;;6.48;59.93
42761;BME280;31672;47.638;19.026;2023-03-29T20:08:12;100649.81;;;6.48;59.88
42761;BME280;31672;47.638;19.026;2023-03-29T20:13:16;100649.09;;;6.46;60.14
42761;BME280;31672;47.638;19.026;2023-03-29T20:18:41;100638.81;;;6.43;60.12
42761;BME280;31672;47.638;19.026;2023-03-29T20:23:46;100647.44;;;6.45;60.20
42761;BME280;31672;47.638;19.026;2023-03-29T20:28:50;100641.44;;;6.43;60.10
42761;BME280;31672;47.638;19.026;2023-03-29T20:33:53;100633.53;;;6.43;60.13
42761;BME280;31672;47.638;19.026;2023-03-29T20:38:58;100638.81;;;6.43;60.29
42761;BME280;31672;47.638;19.026;2023-03-29T20:44:04;100633.53;;;6.43;60.12
42761;BME280;31672;47.638;19.026;2023-03-29T20:49:07;100622.81;;;6.44;60.08
42761;BME280;31672;47.638;19.026;2023-03-29T20:54:10;100621.03;;;6.45;60.38
42761;BME280;31672;47.638;19.026;2023-03-29T20:59:13;100633.25;;;6.46;60.46
42761;BME280;31672;47.638;19.026;2023-03-29T21:04:17;100621.53;;;6.39;61.04
42761;BME280;31672;47.638;19.026;2023-03-29T21:09:22;100626.00;;;6.38;60.96
42761;BME280;31672;47.638;19.026;2023-03-29T21:14:28;100613.91;;;6.36;61.02
42761;BME280;31672;47.638;19.026;2023-03-29T21:19:32;100617.75;;;6.32;61.42
42761;BME280;31672;47.638;19.026;2023-03-29T21:24:35;100618.53;;;6.23;61.80
42761;BME280;31672;47.638;19.026;2023-03-29T21:29:38;100620.97;;;6.14;62.18
42761;BME280;31672;47.638;19.026;2023-03-29T21:34:41;100627.38;;;6.12;62.59
42761;BME280;31672;47.638;19.026;2023-03-29T21:39:44;100620.81;;;6.06;62.56
42761;BME280;31672;47.638;19.026;2023-03-29T21:44:47;100627.44;;;6.01;63.84
42761;BME280;31672;47.638;19.026;2023-03-29T21:49:50;100621.09;;;5.92;64.22
42761;BME280;31672;47.638;19.026;2023-03-29T21:54:53;100612.59;;;5.88;64.19
42761;BME280;31672;47.638;19.026;2023-03-29T21:59:56;100612.78;;;5.76;64.43
42761;BME280;31672;47.638;19.026;2023-03-29T22:04:59;100613.97;;;5.72;64.71
42761;BME280;31672;47.638;19.026;2023-03-29T22:10:04;100622.63;;;5.62;65.49
42761;BME280;31672;47.638;19.026;2023-03-29T22:15:11;100619.53;;;5.57;65.38
42761;BME280;31672;47.638;19.026;2023-03-29T22:20:14;100616.97;;;5.46;65.62
42761;BME280;31672;47.638;19.026;2023-03-29T22:25:20;100611.72;;;5.35;65.83
42761;BME280;31672;47.638;19.026;2023-03-29T22:30:24;100614.50;;;5.22;66.79
42761;BME280;31672;47.638;19.026;2023-03-29T22:35:27;100620.00;;;5.19;66.77
42761;BME280;31672;47.638;19.026;2023-03-29T22:40:30;100614.41;;;5.13;66.87
42761;BME280;31672;47.638;19.026;2023-03-29T22:45:35;100622.66;;;5.08;67.10
42761;BME280;31672;47.638;19.026;2023-03-29T22:50:38;100627.09;;;5.07;67.15
42761;BME280;31672;47.638;19.026;2023-03-29T22:55:44;100632.00;;;5.01;67.16
42761;BME280;31672;47.638;19.026;2023-03-29T23:00:48;100628.69;;;4.99;67.16
42761;BME280;31672;47.638;19.026;2023-03-29T23:05:56;100626.63;;;4.91;67.59
42761;BME280;31672;47.638;19.026;2023-03-29T23:11:00;100631.78;;;4.81;68.17
42761;BME280;31672;47.638;19.026;2023-03-29T23:16:04;100636.94;;;4.72;68.48
42761;BME280;31672;47.638;19.026;2023-03-29T23:21:08;100633.59;;;4.70;68.42
42761;BME280;31672;47.638;19.026;2023-03-29T23:26:12;100636.22;;;4.70;68.60
42761;BME280;31672;47.638;19.026;2023-03-29T23:31:16;100628.06;;;4.73;68.68
42761;BME280;31672;47.638;19.026;2023-03-29T23:36:21;100634.78;;;4.77;68.93
42761;BME280;31672;47.638;19.026;2023-03-29T23:41:25;100621.75;;;4.75;69.42
42761;BME280;31672;47.638;19.026;2023-03-29T23:46:32;100622.31;;;4.79;69.44
42761;BME280;31672;47.638;19.026;2023-03-29T23:51:35;100627.94;;;4.86;69.42
42761;BME280;31672;47.638;19.026;2023-03-29T23:56:38;100617.31;;;4.87;69.62
